Time;durP1;ratioP1;P1;durP2;ratioP2;P2;SDS_P1;SDS_P2;PMS_P1;PMS_P2;Temp;Humidity;BMP_temperature;BMP_pressure;BME280_temperature;BME280_humidity;BME280_pressure;Samples;Min_cycle;Max_cycle;Signal;HPM_P1;HPM_P2
2024/01/15 00:01:53;;;;;;;12.20;2.53;;;1.90;99.90;;;;;;5071880;28;20614;-64
2024/01/15 00:04:19;;;;;;;10.25;2.08;;;1.80;99.90;;;;;;5089562;28;20136;-63
2024/01/15 00:06:45;;;;;;;;;;;2.00;99.90;;;;;;5090204;28;20097;-63
2024/01/15 00:09:12;;;;;;;8.93;2.25;;;1.90;99.90;;;;;;5064197;28;20264;-62
2024/01/15 00:11:38;;;;;;;7.78;2.63;;;1.90;99.90;;;;;;5052001;28;20052;-63
2024/01/15 00:14:04;;;;;;;9.43;2.38;;;1.90;99.90;;;;;;5069678;28;20056;-63
2024/01/15 00:16:30;;;;;;;7.30;1.45;;;1.90;99.90;;;;;;5069650;28;20072;-63
2024/01/15 00:18:57;;;;;;;8.48;2.15;;;2.00;99.90;;;;;;5056309;28;20048;-63
2024/01/15 00:21:24;;;;;;;;;;;2.00;99.90;;;;;;5089847;28;20101;-62
2024/01/15 00:23:51;;;;;;;8.05;2.42;;;2.00;99.90;;;;;;5089577;28;19935;-63
2024/01/15 00:26:17;;;;;;;9.13;1.70;;;1.90;99.90;;;;;;5089479;28;20105;-62
2024/01/15 00:28:43;;;;;;;8.05;2.22;;;2.20;99.90;;;;;;5067385;28;20045;-63
2024/01/15 00:31:09;;;;;;;12.35;3.28;;;2.20;99.90;;;;;;5069399;28;20048;-62
2024/01/15 00:33:36;;;;;;;7.75;2.40;;;2.10;99.90;;;;;;5072261;28;20464;-63
2024/01/15 00:36:04;;;;;;;7.88;1.77;;;2.30;99.90;;;;;;5073185;28;20435;-64
2024/01/15 00:38:30;;;;;;;11.05;1.92;;;2.10;99.90;;;;;;5073932;28;20406;-62
2024/01/15 00:40:56;;;;;;;;;;;2.10;99.90;;;;;;5094074;28;20464;-62
2024/01/15 00:43:22;;;;;;;8.05;1.80;;;2.10;99.90;;;;;;5093802;28;19955;-64
2024/01/15 00:45:49;;;;;;;4.07;1.65;;;2.00;99.90;;;;;;5093699;28;20062;-63
2024/01/15 00:48:15;;;;;;;8.73;2.30;;;2.00;99.90;;;;;;5075017;28;20044;-63
2024/01/15 00:50:42;;;;;;;7.18;2.20;;;2.00;99.90;;;;;;5055559;28;20063;-62
2024/01/15 00:53:08;;;;;;;4.72;1.70;;;1.90;99.90;;;;;;5072710;28;20380;-62
2024/01/15 00:55:34;;;;;;;5.30;1.73;;;1.90;99.90;;;;;;5055331;28;20079;-63
2024/01/15 00:58:00;;;;;;;8.48;1.80;;;2.00;99.90;;;;;;5073113;28;20048;-63
2024/01/15 01:00:27;;;;;;;9.43;2.33;;;2.00;99.90;;;;;;5072513;28;20054;-63
2024/01/15 01:02:53;;;;;;;6.43;1.60;;;1.90;99.90;;;;;;5093822;28;20059;-62
2024/01/15 01:05:19;;;;;;;3.95;1.20;;;2.00;99.90;;;;;;5074958;28;20044;-63
2024/01/15 01:07:45;;;;;;;10.35;2.17;;;2.00;99.90;;;;;;5074736;28;20055;-63
2024/01/15 01:10:12;;;;;;;10.40;1.90;;;2.00;99.90;;;;;;5074308;28;20135;-63
2024/01/15 01:12:38;;;;;;;6.90;2.00;;;2.10;99.90;;;;;;5075149;28;20051;-62
2024/01/15 01:15:05;;;;;;;8.65;2.10;;;2.20;99.90;;;;;;5074795;28;20055;-62
2024/01/15 01:17:31;;;;;;;7.93;2.90;;;2.10;99.90;;;;;;5074676;28;20070;-63
2024/01/15 01:19:57;;;;;;;6.75;1.98;;;2.10;99.90;;;;;;5061649;28;20058;-62
2024/01/15 01:22:24;;;;;;;8.73;1.90;;;2.30;99.90;;;;;;5054637;28;20059;-62
2024/01/15 01:24:50;;;;;;;10.77;2.67;;;2.20;99.90;;;;;;5038364;28;20453;-64
2024/01/15 01:27:16;;;;;;;;;;;2.30;99.90;;;;;;5055093;28;20057;-63
2024/01/15 01:29:42;;;;;;;10.90;2.75;;;2.30;99.90;;;;;;5054822;28;19940;-63
2024/01/15 01:32:08;;;;;;;14.73;2.58;;;2.30;99.90;;;;;;5054333;28;20078;-63
2024/01/15 01:34:43;;;;;;;8.02;1.92;;;2.40;99.90;;;;;;5054491;28;20059;-62
2024/01/15 01:37:15;;;;;;;8.55;2.35;;;2.40;99.90;;;;;;5054987;28;20113;-63
2024/01/15 01:39:43;;;;;;;8.82;2.15;;;2.30;99.90;;;;;;5054800;28;20063;-63
2024/01/15 01:42:09;;;;;;;10.23;2.08;;;2.30;99.90;;;;;;5038166;28;20364;-62
2024/01/15 01:44:36;;;;;;;6.70;1.95;;;2.20;99.90;;;;;;5053987;28;20067;-63
2024/01/15 01:47:03;;;;;;;12.65;2.17;;;2.20;99.90;;;;;;5053953;28;20064;-63
2024/01/15 01:49:30;;;;;;;10.50;1.90;;;2.20;99.90;;;;;;5053412;28;20055;-62
2024/01/15 01:51:59;;;;;;;10.43;2.00;;;2.10;99.90;;;;;;5054147;28;20098;-62
2024/01/15 01:54:28;;;;;;;9.18;2.03;;;2.20;99.90;;;;;;5054202;28;20062;-63
2024/01/15 01:56:56;;;;;;;12.75;2.25;;;2.20;99.90;;;;;;5054106;28;20053;-62
2024/01/15 01:59:25;;;;;;;5.68;2.45;;;2.30;99.90;;;;;;5053208;28;20110;-63
2024/01/15 02:01:54;;;;;;;5.25;1.63;;;2.30;99.90;;;;;;5054176;28;20772;-63
2024/01/15 02:04:23;;;;;;;7.15;2.05;;;2.30;99.90;;;;;;5053824;28;20461;-62
2024/01/15 02:06:50;;;;;;;5.38;1.58;;;2.30;99.90;;;;;;5054088;28;20066;-62
2024/01/15 02:09:17;;;;;;;8.07;1.60;;;2.20;99.90;;;;;;5053372;28;20393;-63
2024/01/15 02:11:46;;;;;;;8.60;2.10;;;2.10;99.90;;;;;;5054076;28;20058;-62
2024/01/15 02:14:12;;;;;;;10.40;2.70;;;2.30;99.90;;;;;;5053507;28;20049;-64
2024/01/15 02:16:39;;;;;;;9.20;1.90;;;2.50;99.90;;;;;;5053562;28;20053;-62
2024/01/15 02:19:05;;;;;;;;;;;2.70;99.90;;;;;;5053270;28;20477;-64
2024/01/15 02:21:32;;;;;;;8.23;2.30;;;2.50;99.90;;;;;;5053421;28;19927;-62
2024/01/15 02:23:59;;;;;;;5.78;2.20;;;2.60;99.90;;;;;;5058321;28;20051;-63
2024/01/15 02:26:26;;;;;;;11.05;2.72;;;2.50;99.90;;;;;;5053375;28;20086;-62
2024/01/15 02:28:52;;;;;;;9.60;2.20;;;2.50;99.90;;;;;;5052773;28;20443;-63
2024/01/15 02:31:18;;;;;;;6.25;2.25;;;2.60;99.90;;;;;;5053400;28;20352;-62
2024/01/15 02:33:48;;;;;;;6.45;1.73;;;2.50;99.90;;;;;;5036796;28;20488;-63
2024/01/15 02:36:16;;;;;;;6.65;1.50;;;2.30;99.90;;;;;;5053990;28;20048;-63
2024/01/15 02:38:43;;;;;;;3.55;1.88;;;1.90;99.90;;;;;;5053411;28;20048;-62
2024/01/15 02:41:09;;;;;;;5.18;1.70;;;1.80;99.90;;;;;;5053934;28;20442;-61
2024/01/15 02:43:35;;;;;;;3.25;1.25;;;1.90;99.90;;;;;;5053745;28;20108;-62
2024/01/15 02:46:01;;;;;;;3.42;1.35;;;1.80;99.90;;;;;;5053507;28;20071;-63
2024/01/15 02:48:28;;;;;;;7.32;1.63;;;1.70;99.90;;;;;;5052969;28;20461;-61
2024/01/15 02:50:54;;;;;;;8.13;2.08;;;1.50;99.90;;;;;;5071112;28;20087;-62
2024/01/15 02:53:20;;;;;;;7.28;1.65;;;1.80;99.90;;;;;;5053534;28;20053;-61
2024/01/15 02:55:46;;;;;;;;;;;1.80;99.90;;;;;;5052830;28;20102;-62
2024/01/15 02:58:14;;;;;;;7.03;2.00;;;1.80;99.90;;;;;;5053164;28;19924;-63
2024/01/15 03:00:40;;;;;;;5.68;2.00;;;1.50;99.90;;;;;;5053081;28;20357;-63
2024/01/15 03:03:07;;;;;;;7.93;2.03;;;1.80;99.90;;;;;;5053014;28;20056;-62
2024/01/15 03:05:33;;;;;;;4.63;1.17;;;1.80;99.90;;;;;;5052887;28;20049;-63
2024/01/15 03:07:59;;;;;;;4.05;1.33;;;1.70;99.90;;;;;;5052816;28;20047;-63
2024/01/15 03:10:25;;;;;;;;;;;1.70;99.90;;;;;;5053381;28;20110;-63
2024/01/15 03:12:52;;;;;;;3.95;1.10;;;1.80;99.90;;;;;;5052916;28;19928;-63
2024/01/15 03:15:18;;;;;;;4.65;1.35;;;1.80;99.90;;;;;;5052863;28;20064;-62
2024/01/15 03:17:44;;;;;;;6.65;1.42;;;1.80;99.90;;;;;;5052809;28;20504;-63
2024/01/15 03:20:11;;;;;;;10.25;1.50;;;1.60;99.90;;;;;;5052253;28;20049;-63
2024/01/15 03:22:37;;;;;;;4.85;1.42;;;1.90;99.90;;;;;;5052604;28;20053;-63
2024/01/15 03:25:04;;;;;;;7.05;1.50;;;1.70;99.90;;;;;;5052557;28;20586;-63
2024/01/15 03:27:30;;;;;;;5.93;1.85;;;1.80;99.90;;;;;;5052595;28;20075;-63
2024/01/15 03:29:57;;;;;;;;;;;1.80;99.90;;;;;;5053399;28;20048;-62
2024/01/15 03:32:23;;;;;;;11.20;2.67;;;2.00;99.90;;;;;;5052924;28;19957;-63
2024/01/15 03:34:49;;;;;;;10.45;2.75;;;2.20;99.90;;;;;;5052639;28;20049;-63
2024/01/15 03:37:16;;;;;;;8.57;1.85;;;2.20;99.90;;;;;;5052502;28;20055;-64
2024/01/15 03:39:42;;;;;;;8.35;3.00;;;2.20;99.90;;;;;;5052758;28;20321;-63
2024/01/15 03:42:08;;;;;;;13.27;2.67;;;2.00;99.90;;;;;;5052898;28;20344;-63
2024/01/15 03:44:34;;;;;;;8.38;2.30;;;1.80;99.90;;;;;;5036295;28;20075;-63
2024/01/15 03:47:01;;;;;;;10.55;2.92;;;1.70;99.90;;;;;;5053133;28;20056;-63
2024/01/15 03:49:27;;;;;;;8.73;2.10;;;1.90;99.90;;;;;;5051995;28;20403;-63
2024/01/15 03:51:53;;;;;;;7.28;2.20;;;1.60;99.90;;;;;;5052317;28;20109;-64
2024/01/15 03:54:20;;;;;;;9.40;1.83;;;1.80;99.90;;;;;;5052367;28;20044;-64
2024/01/15 03:56:46;;;;;;;10.05;1.73;;;1.70;99.90;;;;;;5052576;28;20408;-62
2024/01/15 03:59:12;;;;;;;;;;;1.70;99.90;;;;;;5052581;28;20550;-64
2024/01/15 04:01:38;;;;;;;5.32;1.88;;;1.60;99.90;;;;;;5052495;28;19920;-62
2024/01/15 04:04:04;;;;;;;4.95;1.60;;;1.70;99.90;;;;;;5052281;28;20060;-63
2024/01/15 04:06:31;;;;;;;8.15;1.60;;;1.40;99.90;;;;;;5035968;28;20075;-63
2024/01/15 04:08:58;;;;;;;;;;;1.70;99.90;;;;;;5051927;28;20083;-63
2024/01/15 04:11:24;;;;;;;4.72;1.55;;;1.40;99.90;;;;;;5052335;28;19924;-61
2024/01/15 04:13:50;;;;;;;;;;;1.40;99.90;;;;;;5052655;28;20082;-62
2024/01/15 04:16:17;;;;;;;7.97;2.13;;;1.70;99.90;;;;;;5052631;28;19935;-63
2024/01/15 04:18:43;;;;;;;3.45;1.30;;;1.60;99.90;;;;;;5051642;28;20059;-63
2024/01/15 04:21:09;;;;;;;7.97;1.55;;;1.80;99.90;;;;;;5052229;28;20049;-63
2024/01/15 04:23:35;;;;;;;5.22;1.10;;;1.70;99.90;;;;;;5052271;28;20058;-62
2024/01/15 04:26:02;;;;;;;3.70;1.95;;;1.70;99.90;;;;;;5052336;28;20049;-62
2024/01/15 04:28:28;;;;;;;3.03;0.90;;;1.50;99.90;;;;;;5051735;28;20059;-63
2024/01/15 04:30:54;;;;;;;7.50;1.20;;;1.40;99.90;;;;;;5051822;28;20082;-63
2024/01/15 04:33:21;;;;;;;;;;;1.50;99.90;;;;;;5052961;28;20048;-62
2024/01/15 04:35:47;;;;;;;1.92;1.00;;;1.40;99.90;;;;;;5052773;28;19924;-62
2024/01/15 04:38:13;;;;;;;2.33;1.67;;;1.50;99.90;;;;;;5051776;28;20053;-62
2024/01/15 04:40:39;;;;;;;;;;;1.50;99.90;;;;;;5052820;28;20143;-62
2024/01/15 04:43:06;;;;;;;2.65;1.25;;;1.30;99.90;;;;;;5068949;28;19920;-63
2024/01/15 04:45:32;;;;;;;7.32;1.35;;;1.50;99.90;;;;;;5052315;28;20059;-63
2024/01/15 04:47:58;;;;;;;5.13;1.65;;;1.20;99.90;;;;;;5051781;28;20468;-62
2024/01/15 04:50:24;;;;;;;4.00;1.42;;;1.30;99.90;;;;;;5051931;28;20052;-62
2024/01/15 04:52:51;;;;;;;4.18;1.52;;;1.40;99.90;;;;;;5052194;28;20334;-63
2024/01/15 04:55:17;;;;;;;;;;;1.00;99.90;;;;;;5052216;28;20078;-62
2024/01/15 04:57:43;;;;;;;5.90;1.73;;;1.00;99.90;;;;;;5051414;28;20360;-62
2024/01/15 05:00:10;;;;;;;7.72;1.70;;;1.00;99.90;;;;;;5051376;28;20484;-62
2024/01/15 05:02:37;;;;;;;5.70;1.67;;;0.90;99.90;;;;;;5052012;28;20064;-63
2024/01/15 05:05:03;;;;;;;7.78;1.50;;;1.20;99.90;;;;;;5052519;28;20053;-62
2024/01/15 05:07:29;;;;;;;5.95;1.52;;;1.00;99.90;;;;;;5051679;28;20345;-62
2024/01/15 05:09:56;;;;;;;6.53;1.98;;;1.10;99.90;;;;;;5051863;28;20357;-62
2024/01/15 05:12:22;;;;;;;;;;;1.20;99.90;;;;;;5052623;28;20061;-63
2024/01/15 05:14:48;;;;;;;6.35;2.20;;;1.30;99.90;;;;;;5051872;28;19960;-63
2024/01/15 05:17:14;;;;;;;5.97;1.60;;;1.40;99.90;;;;;;5051921;28;20040;-63
2024/01/15 05:19:41;;;;;;;;;;;1.10;99.90;;;;;;5053141;28;20060;-64
2024/01/15 05:22:07;;;;;;;5.65;1.83;;;1.30;99.90;;;;;;5055284;28;19974;-62
2024/01/15 05:24:33;;;;;;;8.43;2.03;;;1.20;99.90;;;;;;5055421;28;20048;-62
2024/01/15 05:26:59;;;;;;;;;;;1.50;99.90;;;;;;5055277;28;20055;-62
2024/01/15 05:29:26;;;;;;;9.07;2.42;;;1.20;99.90;;;;;;5055257;28;20457;-63
2024/01/15 05:31:52;;;;;;;6.25;1.48;;;1.50;99.90;;;;;;5055433;28;20086;-63
2024/01/15 05:34:19;;;;;;;;;;;1.50;99.90;;;;;;5055619;28;20377;-62
2024/01/15 05:36:47;;;;;;;7.57;1.58;;;1.40;99.90;;;;;;5055497;28;19924;-62
2024/01/15 05:39:13;;;;;;;5.97;1.40;;;1.30;99.90;;;;;;5054929;28;20044;-61
2024/01/15 05:41:40;;;;;;;;;;;1.30;99.90;;;;;;5055900;28;20056;-61
2024/01/15 05:44:06;;;;;;;5.65;1.30;;;1.30;99.90;;;;;;5087980;28;19920;-62
2024/01/15 05:46:33;;;;;;;7.03;1.70;;;1.00;99.90;;;;;;5054666;28;20057;-61
2024/01/15 05:48:59;;;;;;;5.80;2.20;;;1.00;99.90;;;;;;5053502;28;20048;-62
2024/01/15 05:51:25;;;;;;;;;;;0.90;99.90;;;;;;5038479;28;20307;-62
2024/01/15 05:53:51;;;;;;;3.80;1.20;;;0.90;99.90;;;;;;5038612;28;19929;-62
2024/01/15 05:56:17;;;;;;;;;;;1.00;99.90;;;;;;5055027;28;20071;-63
2024/01/15 05:58:44;;;;;;;5.80;1.10;;;1.00;99.90;;;;;;5054179;28;19974;-63
2024/01/15 06:01:10;;;;;;;;;;;1.10;99.90;;;;;;5056150;28;20052;-63
2024/01/15 06:03:36;;;;;;;6.50;1.73;;;0.90;99.90;;;;;;5059354;28;19924;-63
2024/01/15 06:06:02;;;;;;;;;;;1.10;99.90;;;;;;5050576;28;20064;-62
2024/01/15 06:08:30;;;;;;;17.25;4.00;;;1.10;99.90;;;;;;5062467;28;19920;-62
2024/01/15 06:10:56;;;;;;;7.68;1.67;;;1.00;99.90;;;;;;5062314;28;20059;-63
2024/01/15 06:13:23;;;;;;;6.65;1.73;;;1.10;99.90;;;;;;5079776;28;20060;-63
2024/01/15 06:15:49;;;;;;;;;;;1.00;99.90;;;;;;5037410;28;20067;-63
2024/01/15 06:18:15;;;;;;;5.05;1.52;;;1.20;99.90;;;;;;5070206;28;20352;-62
2024/01/15 06:20:41;;;;;;;;;;;1.10;99.90;;;;;;5053908;28;20380;-63
2024/01/15 06:23:07;;;;;;;5.70;1.73;;;1.10;99.90;;;;;;5070678;28;20009;-64
2024/01/15 06:25:34;;;;;;;;;;;1.20;99.90;;;;;;5071448;28;20059;-64
2024/01/15 06:28:00;;;;;;;7.20;2.03;;;1.10;99.90;;;;;;5070889;28;19950;-62
2024/01/15 06:30:26;;;;;;;5.68;1.60;;;1.10;99.90;;;;;;5070256;28;20449;-63
2024/01/15 06:32:54;;;;;;;7.95;2.28;;;0.90;99.90;;;;;;5070531;28;20053;-64
2024/01/15 06:35:20;;;;;;;9.45;1.88;;;1.20;99.90;;;;;;5052715;28;20075;-63
2024/01/15 06:37:47;;;;;;;;;;;1.00;99.90;;;;;;5053390;28;20048;-62
2024/01/15 06:40:14;;;;;;;10.45;2.63;;;1.00;99.90;;;;;;5052725;28;19924;-63
2024/01/15 06:42:41;;;;;;;7.63;2.65;;;1.20;99.90;;;;;;5070844;28;20059;-63
2024/01/15 06:45:07;;;;;;;5.10;1.95;;;1.00;99.90;;;;;;5052667;28;20464;-63
2024/01/15 06:47:34;;;;;;;8.05;1.98;;;1.30;99.90;;;;;;5082741;28;20040;-63
2024/01/15 06:50:00;;;;;;;;;;;1.00;99.90;;;;;;5091230;28;20040;-63
2024/01/15 06:52:26;;;;;;;6.28;1.55;;;1.20;99.90;;;;;;5090404;28;20280;-63
2024/01/15 06:54:52;;;;;;;;;;;1.00;99.90;;;;;;5091219;28;20044;-62
2024/01/15 06:57:20;;;;;;;4.20;1.60;;;1.20;99.90;;;;;;5072696;28;20383;-62
2024/01/15 06:59:46;;;;;;;8.35;1.88;;;1.20;99.90;;;;;;5089864;28;20052;-63
2024/01/15 07:02:12;;;;;;;;;;;1.10;99.90;;;;;;5091404;28;20059;-63
2024/01/15 07:04:39;;;;;;;8.70;2.05;;;1.00;99.90;;;;;;5090733;28;19924;-62
2024/01/15 07:07:05;;;;;;;8.43;2.60;;;1.00;99.90;;;;;;5088475;28;20126;-62
2024/01/15 07:09:32;;;;;;;12.02;2.45;;;1.00;99.90;;;;;;5089359;28;20048;-64
2024/01/15 07:12:00;;;;;;;6.88;1.85;;;1.00;99.90;;;;;;5071612;28;20052;-62
2024/01/15 07:14:26;;;;;;;8.23;2.95;;;1.00;99.90;;;;;;5089231;28;20368;-63
2024/01/15 07:16:52;;;;;;;9.07;2.47;;;1.20;99.90;;;;;;5089612;28;20695;-64
2024/01/15 07:19:19;;;;;;;12.68;3.42;;;1.10;99.90;;;;;;5054201;28;20067;-64
2024/01/15 07:21:45;;;;;;;16.80;3.67;;;1.10;99.90;;;;;;5089952;28;20066;-63
2024/01/15 07:24:11;;;;;;;14.60;4.45;;;1.30;99.90;;;;;;5089619;28;20371;-63
2024/01/15 07:26:38;;;;;;;15.05;3.83;;;1.30;99.90;;;;;;5090167;28;20125;-64
2024/01/15 07:29:04;;;;;;;;;;;1.20;99.90;;;;;;5072047;28;20349;-64
2024/01/15 07:31:30;;;;;;;8.68;2.60;;;1.20;99.90;;;;;;5090042;28;20367;-65
2024/01/15 07:33:56;;;;;;;;;;;1.20;99.90;;;;;;5090653;28;20523;-64
2024/01/15 07:36:22;;;;;;;9.48;1.92;;;1.50;99.90;;;;;;5054331;28;20339;-63
2024/01/15 07:38:49;;;;;;;;;;;1.30;99.90;;;;;;5071509;28;20048;-65
2024/01/15 07:41:15;;;;;;;11.15;2.85;;;1.20;99.90;;;;;;5071916;28;19924;-64
2024/01/15 07:43:41;;;;;;;;;;;1.30;99.90;;;;;;5089791;28;20459;-63
2024/01/15 07:46:08;;;;;;;6.00;2.60;;;1.20;99.90;;;;;;5050923;28;19919;-65
2024/01/15 07:48:34;;;;;;;5.78;1.90;;;1.10;99.90;;;;;;5073712;28;20048;-64
2024/01/15 07:51:01;;;;;;;7.57;2.42;;;1.40;99.90;;;;;;5091608;28;20127;-64
2024/01/15 07:53:27;;;;;;;;;;;1.30;99.90;;;;;;5092222;28;20056;-64
2024/01/15 07:55:54;;;;;;;9.05;2.45;;;1.30;99.90;;;;;;5073988;28;19931;-64
2024/01/15 07:58:21;;;;;;;13.73;2.58;;;1.20;99.90;;;;;;5092058;28;20082;-64
2024/01/15 08:00:51;;;;;;;15.35;3.40;;;1.10;99.90;;;;;;5073271;28;20044;-64
2024/01/15 08:03:17;;;;;;;12.18;3.53;;;1.30;99.90;;;;;;5072980;28;20082;-65
2024/01/15 08:05:44;;;;;;;23.90;5.10;;;1.20;99.90;;;;;;5091647;28;20052;-65
2024/01/15 08:08:11;;;;;;;23.27;4.28;;;1.10;99.90;;;;;;5065348;28;20481;-65
2024/01/15 08:10:38;;;;;;;19.60;5.10;;;1.40;99.90;;;;;;5086877;28;20052;-64
2024/01/15 08:13:04;;;;;;;11.25;2.88;;;1.40;99.90;;;;;;5056856;28;20048;-65
2024/01/15 08:15:31;;;;;;;;;;;1.30;99.90;;;;;;5092273;28;20078;-64
2024/01/15 08:17:59;;;;;;;7.38;2.60;;;1.40;99.90;;;;;;5091531;28;19923;-64
2024/01/15 08:20:25;;;;;;;5.43;2.13;;;1.30;99.90;;;;;;5090120;28;20559;-64
2024/01/15 08:22:53;;;;;;;5.30;1.70;;;1.40;99.90;;;;;;5091263;28;20056;-63
2024/01/15 08:25:19;;;;;;;8.75;1.85;;;1.30;99.90;;;;;;5091416;28;20055;-65
2024/01/15 08:27:46;;;;;;;7.43;1.98;;;1.20;99.90;;;;;;5056820;28;20060;-64
2024/01/15 08:30:12;;;;;;;;;;;1.20;99.90;;;;;;5091421;28;20055;-64
2024/01/15 08:32:42;;;;;;;6.75;1.83;;;1.20;99.90;;;;;;5091296;28;19920;-64
2024/01/15 08:35:09;;;;;;;7.18;2.05;;;1.20;99.90;;;;;;5091351;28;20047;-63
2024/01/15 08:37:35;;;;;;;8.07;2.40;;;1.30;99.90;;;;;;5090812;28;20059;-63
2024/01/15 08:40:01;;;;;;;6.10;1.30;;;1.60;99.90;;;;;;5090307;28;20052;-65
2024/01/15 08:42:28;;;;;;;7.97;1.45;;;1.40;99.90;;;;;;5091318;28;20105;-64
2024/01/15 08:44:54;;;;;;;6.97;2.17;;;1.50;99.90;;;;;;5091156;28;20051;-64
2024/01/15 08:47:21;;;;;;;8.77;1.70;;;1.60;99.90;;;;;;5090665;28;20067;-63
2024/01/15 08:49:47;;;;;;;5.82;1.58;;;1.30;99.90;;;;;;5072914;28;20048;-64
2024/01/15 08:52:15;;;;;;;;;;;1.50;99.90;;;;;;5091441;28;20070;-64
2024/01/15 08:54:42;;;;;;;3.72;1.55;;;1.30;99.90;;;;;;5076159;28;19981;-63
2024/01/15 08:57:08;;;;;;;11.07;2.30;;;1.50;99.90;;;;;;5076917;28;20380;-64
2024/01/15 08:59:34;;;;;;;6.68;2.10;;;1.40;99.90;;;;;;5094583;28;20052;-64
2024/01/15 09:02:01;;;;;;;;;;;1.40;99.90;;;;;;5095296;28;20368;-64
2024/01/15 09:04:27;;;;;;;3.25;1.35;;;1.60;99.90;;;;;;5094886;28;20047;-63
2024/01/15 09:06:56;;;;;;;;;;;1.40;99.90;;;;;;5095032;28;20094;-65
2024/01/15 09:09:24;;;;;;;8.05;2.38;;;1.30;99.90;;;;;;5076206;28;19931;-64
2024/01/15 09:11:51;;;;;;;9.38;3.00;;;1.60;99.90;;;;;;5094639;28;20486;-64
2024/01/15 09:14:18;;;;;;;29.00;7.70;;;1.70;99.90;;;;;;5060059;28;20051;-64
2024/01/15 09:16:46;;;;;;;16.30;4.72;;;1.70;99.90;;;;;;5094359;28;20066;-64
2024/01/15 09:19:13;;;;;;;15.00;3.95;;;1.50;99.90;;;;;;5075740;28;20475;-64
2024/01/15 09:21:40;;;;;;;6.50;2.30;;;1.70;99.90;;;;;;5094486;28;20052;-65
2024/01/15 09:24:07;;;;;;;6.90;1.92;;;1.50;99.90;;;;;;5094224;28;20044;-64
2024/01/15 09:26:33;;;;;;;10.27;2.78;;;1.60;99.90;;;;;;5094375;28;20106;-64
2024/01/15 09:29:00;;;;;;;8.80;2.83;;;1.70;99.90;;;;;;5075895;28;20040;-64
2024/01/15 09:31:27;;;;;;;10.10;2.80;;;1.90;99.90;;;;;;5076676;28;20048;-65
2024/01/15 09:33:56;;;;;;;;;;;1.80;99.90;;;;;;5094977;28;20052;-65
2024/01/15 09:36:22;;;;;;;5.35;1.63;;;1.90;99.90;;;;;;5093994;28;19928;-64
2024/01/15 09:38:49;;;;;;;5.85;2.00;;;1.90;99.90;;;;;;5093739;28;20052;-65
2024/01/15 09:41:15;;;;;;;5.75;2.00;;;1.90;99.90;;;;;;5075920;28;20162;-64
2024/01/15 09:43:43;;;;;;;7.65;2.05;;;1.70;99.90;;;;;;5094215;28;20091;-64
2024/01/15 09:46:11;;;;;;;5.38;1.85;;;1.70;99.90;;;;;;5076111;28;20097;-64
2024/01/15 09:48:38;;;;;;;6.70;1.80;;;1.90;99.90;;;;;;5093411;28;20044;-63
2024/01/15 09:51:07;;;;;;;4.95;1.38;;;1.80;99.90;;;;;;5040781;28;20510;-63
2024/01/15 09:53:35;;;;;;;7.15;1.85;;;1.60;99.90;;;;;;5057483;28;20040;-63
2024/01/15 09:56:01;;;;;;;5.78;1.63;;;1.60;99.90;;;;;;5066033;28;20056;-64
2024/01/15 09:58:29;;;;;;;8.18;1.55;;;1.60;99.90;;;;;;5067310;28;20078;-65
2024/01/15 10:00:56;;;;;;;4.72;1.40;;;1.40;99.90;;;;;;5059381;28;20049;-63
2024/01/15 10:03:23;;;;;;;6.85;1.92;;;1.50;99.90;;;;;;5053770;28;20049;-64
2024/01/15 10:05:51;;;;;;;6.15;1.77;;;1.50;99.90;;;;;;5052617;28;20049;-63
2024/01/15 10:08:17;;;;;;;5.30;1.92;;;1.40;99.90;;;;;;5052940;28;20083;-64
2024/01/15 10:10:43;;;;;;;3.42;1.50;;;1.30;99.90;;;;;;5065434;28;20048;-64
2024/01/15 10:13:11;;;;;;;6.72;1.85;;;1.40;99.90;;;;;;5093695;28;20676;-63
2024/01/15 10:15:42;;;;;;;6.40;1.67;;;1.40;99.90;;;;;;5093262;28;20455;-63
2024/01/15 10:18:10;;;;;;;6.38;2.03;;;1.60;99.90;;;;;;5093551;28;20105;-63
2024/01/15 10:20:36;;;;;;;7.63;2.60;;;1.60;99.90;;;;;;5060705;28;20056;-63
2024/01/15 10:23:04;;;;;;;16.65;2.70;;;1.50;99.90;;;;;;5073065;28;20482;-64
2024/01/15 10:25:30;;;;;;;24.70;4.50;;;1.80;99.90;;;;;;5055349;28;20048;-64
2024/01/15 10:28:02;;;;;;;4.60;1.70;;;2.00;99.90;;;;;;5072921;28;20413;-64
2024/01/15 10:30:29;;;;;;;4.70;2.30;;;2.10;99.90;;;;;;5067205;28;20487;-63
2024/01/15 10:32:59;;;;;;;6.00;3.53;;;2.20;99.90;;;;;;5092755;28;20430;-63
2024/01/15 10:35:35;;;;;;;5.78;2.25;;;2.00;99.90;;;;;;5093077;28;20082;-64
2024/01/15 10:38:02;;;;;;;4.43;1.40;;;2.00;99.90;;;;;;5093522;28;20067;-66
2024/01/15 10:40:29;;;;;;;6.97;1.95;;;2.20;99.90;;;;;;5091757;28;20357;-62
2024/01/15 10:42:55;;;;;;;9.60;2.47;;;2.00;99.90;;;;;;5093068;28;20047;-63
2024/01/15 10:45:22;;;;;;;5.28;2.58;;;2.00;99.90;;;;;;5092772;28;20484;-65
2024/01/15 10:47:50;;;;;;;6.50;2.53;;;2.00;99.90;;;;;;5065204;28;20040;-64
2024/01/15 10:50:16;;;;;;;7.70;2.38;;;2.00;99.90;;;;;;5072120;28;20052;-63
2024/01/15 10:52:44;;;;;;;13.25;4.63;;;2.20;99.90;;;;;;5072336;28;20113;-64
2024/01/15 10:55:10;;;;;;;7.13;2.60;;;2.20;99.90;;;;;;5054703;28;20056;-63
2024/01/15 10:57:38;;;;;;;6.63;4.35;;;2.30;99.90;;;;;;5072604;28;20518;-62
2024/01/15 11:00:05;;;;;;;4.50;2.60;;;2.20;99.90;;;;;;5053912;28;20463;-63
2024/01/15 11:02:35;;;;;;;5.25;2.67;;;2.10;99.90;;;;;;5072142;28;20105;-64
2024/01/15 11:05:03;;;;;;;4.50;2.55;;;1.50;99.90;;;;;;5072272;28;20137;-64
2024/01/15 11:07:32;;;;;;;5.45;3.72;;;1.30;99.90;;;;;;5072082;28;20045;-63
2024/01/15 11:09:58;;;;;;;3.80;1.55;;;1.40;99.90;;;;;;5054137;28;20044;-64
2024/01/15 11:12:25;;;;;;;2.70;1.50;;;1.30;99.90;;;;;;5052498;28;20060;-61
2024/01/15 11:14:53;;;;;;;5.13;1.73;;;1.10;99.90;;;;;;5070835;28;20052;-61
2024/01/15 11:17:19;;;;;;;5.13;2.10;;;1.10;99.90;;;;;;5069212;28;20052;-63
2024/01/15 11:19:52;;;;;;;4.90;2.22;;;1.20;99.90;;;;;;5071293;28;20462;-61
2024/01/15 11:22:31;;;;;;;5.28;2.47;;;1.10;99.90;;;;;;5072419;28;20118;-62
2024/01/15 11:25:03;;;;;;;6.78;2.63;;;1.00;99.90;;;;;;5071998;28;20372;-63
2024/01/15 11:27:54;;;;;;;4.20;1.80;;;1.00;99.90;;;;;;5072195;28;20059;-63
2024/01/15 11:30:25;;;;;;;3.78;1.25;;;1.20;99.90;;;;;;5054393;28;20065;-63
2024/01/15 11:32:51;;;;;;;1.80;1.08;;;1.10;99.90;;;;;;5071874;28;20040;-63
2024/01/15 11:35:18;;;;;;;4.43;1.67;;;1.20;99.90;;;;;;5072430;28;20045;-62
2024/01/15 11:37:51;;;;;;;2.80;1.70;;;1.10;99.90;;;;;;5072201;28;20056;-63
2024/01/15 11:40:17;;;;;;;;;;;1.30;99.90;;;;;;5072313;28;20392;-63
2024/01/15 11:42:45;;;;;;;3.88;1.05;;;1.20;99.90;;;;;;5054157;28;20006;-63
2024/01/15 11:45:11;;;;;;;6.68;2.25;;;1.30;99.90;;;;;;5054200;28;20102;-63
2024/01/15 11:48:10;;;;;;;5.35;1.88;;;1.50;99.90;;;;;;5059072;28;20052;-62
2024/01/15 11:50:40;;;;;;;8.52;2.88;;;1.30;99.90;;;;;;5088157;28;20059;-64
2024/01/15 11:53:25;;;;;;;4.68;2.03;;;1.70;99.90;;;;;;5091527;28;20083;-62
2024/01/15 11:55:55;;;;;;;6.63;1.88;;;1.60;99.90;;;;;;5090278;28;20491;-62
2024/01/15 11:58:22;;;;;;;7.13;1.80;;;1.70;99.90;;;;;;5072886;28;20063;-63
2024/01/15 12:00:52;;;;;;;9.65;2.38;;;1.80;99.90;;;;;;5073314;28;20052;-62
2024/01/15 12:03:24;;;;;;;6.85;1.90;;;2.10;99.90;;;;;;5073687;28;20066;-62
2024/01/15 12:05:54;;;;;;;8.80;2.22;;;2.10;99.90;;;;;;5073741;28;20066;-63
2024/01/15 12:08:24;;;;;;;11.30;2.63;;;2.40;99.90;;;;;;5073283;28;20233;-63
2024/01/15 12:10:51;;;;;;;7.45;1.90;;;2.40;99.90;;;;;;5073513;28;20052;-63
2024/01/15 12:13:20;;;;;;;6.03;1.60;;;2.60;99.90;;;;;;5056097;28;20086;-64
2024/01/15 12:15:47;;;;;;;4.72;1.52;;;2.70;99.90;;;;;;5072774;28;20048;-63
2024/01/15 12:18:15;;;;;;;5.28;2.17;;;2.80;99.90;;;;;;5073887;28;20361;-63
2024/01/15 12:20:43;;;;;;;8.98;2.70;;;2.70;99.90;;;;;;5073373;28;20075;-62
2024/01/15 12:23:16;;;;;;;7.18;2.28;;;2.60;99.90;;;;;;5074021;28;20060;-64
2024/01/15 12:25:43;;;;;;;6.75;2.50;;;2.60;99.90;;;;;;5074097;28;20052;-63
2024/01/15 12:28:10;;;;;;;3.15;1.55;;;2.30;99.90;;;;;;5092284;28;20113;-64
2024/01/15 12:30:37;;;;;;;4.43;1.60;;;2.30;99.90;;;;;;5075985;28;20036;-63
2024/01/15 12:33:05;;;;;;;7.97;2.42;;;2.30;99.90;;;;;;5060867;28;20048;-63
2024/01/15 12:35:33;;;;;;;7.03;1.88;;;2.20;99.90;;;;;;5095390;28;20063;-63
2024/01/15 12:38:03;;;;;;;4.55;1.80;;;2.30;99.90;;;;;;5095115;28;20048;-64
2024/01/15 12:40:32;;;;;;;5.82;2.17;;;2.10;99.90;;;;;;5076955;28;20384;-64
2024/01/15 12:42:58;;;;;;;3.13;1.95;;;2.30;99.90;;;;;;5061040;28;20055;-64
2024/01/15 12:45:25;;;;;;;2.72;1.35;;;2.40;99.90;;;;;;5095511;28;20055;-63
2024/01/15 12:47:51;;;;;;;5.82;1.85;;;2.30;99.90;;;;;;5095099;28;20067;-63
2024/01/15 12:50:17;;;;;;;6.97;1.58;;;2.30;99.90;;;;;;5084766;28;20055;-63
2024/01/15 12:52:43;;;;;;;6.65;1.48;;;2.00;99.90;;;;;;5074837;28;20060;-63
2024/01/15 12:55:10;;;;;;;3.55;1.98;;;2.00;99.90;;;;;;5091747;28;20048;-63
2024/01/15 12:57:37;;;;;;;4.93;2.17;;;1.90;99.90;;;;;;5095186;28;20063;-63
2024/01/15 13:00:11;;;;;;;4.82;1.83;;;1.90;99.90;;;;;;5052203;28;20405;-63
2024/01/15 13:02:44;;;;;;;3.78;1.92;;;1.80;99.90;;;;;;5074598;28;20102;-63
2024/01/15 13:05:11;;;;;;;5.68;1.88;;;2.00;99.90;;;;;;5056884;28;20061;-63
2024/01/15 13:07:38;;;;;;;5.15;2.30;;;2.00;99.90;;;;;;5056851;28;20052;-63